Time;durP1;ratioP1;P1;durP2;ratioP2;P2;SDS_P1;SDS_P2;PMS_P1;PMS_P2;Temp;Humidity;BMP_temperature;BMP_pressure;BME280_temperature;BME280_humidity;BME280_pressure;Samples;Min_cycle;Max_cycle;Signal;HPM_P1;HPM_P2
2022/08/08 06:30:22;;;;;;;7.70;5.20;;;;;;;20.12;75.23;101501.77;106062;1265;955603;-71
2022/08/08 06:32:59;;;;;;;9.00;5.10;;;;;;;20.17;74.89;101497.65;108798;1237;61314;-73
2022/08/08 06:35:30;;;;;;;7.50;4.50;;;;;;;20.13;75.08;101498.12;108697;1235;74130;-71
2022/08/08 06:38:24;;;;;;;9.80;5.60;;;;;;;20.21;74.74;101499.71;108697;1237;62007;-72
2022/08/08 06:41:07;;;;;;;11.10;5.90;;;;;;;20.31;74.24;101496.77;108735;1237;59190;-74
2022/08/08 06:43:44;;;;;;;9.90;5.50;;;;;;;20.24;74.55;101503.35;108597;1237;74058;-73
2022/08/08 06:46:26;;;;;;;6.60;4.90;;;;;;;20.27;74.47;101505.34;108724;1235;62713;-73
2022/08/08 06:48:59;;;;;;;7.80;5.10;;;;;;;20.25;74.82;101503.98;108922;1236;58741;-71
2022/08/08 06:51:27;;;;;;;9.50;4.60;;;;;;;20.39;74.22;101509.56;108437;1237;62197;-71
2022/08/08 06:54:17;;;;;;;9.60;5.50;;;;;;;20.39;74.09;101517.63;108721;1237;70600;-73
2022/08/08 06:56:48;;;;;;;10.60;6.00;;;;;;;20.44;73.95;101512.86;108748;1237;70794;-70
2022/08/08 06:59:20;;;;;;;7.50;5.00;;;;;;;20.47;74.02;101507.75;108660;1237;73765;-72
2022/08/08 07:02:01;;;;;;;8.90;5.50;;;;;;;20.55;73.81;101515.92;108489;1238;58977;-73
2022/08/08 07:05:07;;;;;;;8.90;5.20;;;;;;;20.56;73.51;101510.20;108535;1237;58274;-75
2022/08/08 07:08:16;;;;;;;11.70;5.70;;;;;;;20.63;73.26;101509.65;108747;1237;74050;-72
2022/08/08 07:10:55;;;;;;;10.80;5.50;;;;;;;20.71;73.14;101508.72;108549;1236;73603;-73
2022/08/08 07:13:32;;;;;;;7.80;5.70;;;;;;;20.73;73.21;101512.88;108558;1236;60437;-75
2022/08/08 07:16:08;;;;;;;7.10;5.60;;;;;;;20.83;73.02;101516.49;108773;1237;73089;-73
2022/08/08 07:19:05;;;;;;;9.80;5.90;;;;;;;20.87;72.73;101510.94;108676;1237;63329;-72
2022/08/08 07:21:54;;;;;;;7.40;5.60;;;;;;;20.90;72.72;101511.67;108648;1238;59019;-72
2022/08/08 07:24:50;;;;;;;8.40;6.20;;;;;;;21.02;72.16;101513.80;108789;1236;71722;-74
2022/08/08 07:27:26;;;;;;;11.50;5.70;;;;;;;20.96;71.92;101518.55;108873;1237;72288;-74
2022/08/08 07:30:13;;;;;;;9.90;6.10;;;;;;;20.91;72.31;101518.32;108687;1237;60595;-74
2022/08/08 07:32:53;;;;;;;10.00;6.00;;;;;;;20.95;72.45;101519.69;108758;1237;63237;-75
2022/08/08 07:35:28;;;;;;;8.60;5.80;;;;;;;21.01;72.11;101516.83;108563;1238;59024;-73
2022/08/08 07:37:58;;;;;;;7.80;5.60;;;;;;;21.04;71.96;101516.45;108720;1237;58927;-75
2022/08/08 07:40:54;;;;;;;6.60;5.50;;;;;;;21.16;71.76;101525.77;108901;1236;73662;-79
2022/08/08 07:43:31;;;;;;;9.60;5.90;;;;;;;21.26;71.35;101522.62;108524;1237;72669;-75
2022/08/08 07:46:06;;;;;;;8.10;5.80;;;;;;;21.27;71.27;101520.50;108455;1237;61026;-73
2022/08/08 07:48:56;;;;;;;9.60;5.80;;;;;;;21.22;71.32;101520.02;108670;1237;74053;-75
2022/08/08 07:51:25;;;;;;;10.10;5.90;;;;;;;21.27;71.11;101523.03;108603;1238;58925;-74
2022/08/08 07:55:05;;;;;;;11.10;5.70;;;;;;;21.35;70.99;101522.15;108539;1237;58275;-78
2022/08/08 07:58:12;;;;;;;9.50;6.10;;;;;;;21.25;71.18;101524.28;107844;1242;62914;-75
2022/08/08 08:01:06;;;;;;;7.90;6.20;;;;;;;21.30;71.30;101524.34;107950;1242;72340;-74
2022/08/08 08:03:44;;;;;;;11.60;5.60;;;;;;;21.50;70.66;101525.65;108724;1236;69768;-76
2022/08/08 08:06:19;;;;;;;8.20;5.60;;;;;;;21.48;70.43;101528.13;109569;1228;63632;-75
2022/08/08 08:09:04;;;;;;;10.90;5.80;;;;;;;21.27;71.21;101524.12;109315;1230;61089;-73
2022/08/08 08:11:41;;;;;;;8.20;5.30;;;;;;;21.54;70.40;101521.48;109443;1230;61556;-73
2022/08/08 08:14:44;;;;;;;7.70;5.50;;;;;;;21.49;70.38;101520.23;109524;1230;73215;-74
2022/08/08 08:17:18;;;;;;;6.70;5.10;;;;;;;21.63;70.00;101520.52;109604;1230;62072;-73
2022/08/08 08:19:51;;;;;;;7.00;5.30;;;;;;;21.72;69.76;101522.86;109515;1230;60108;-77
2022/08/08 08:22:23;;;;;;;6.70;4.90;;;;;;;21.82;69.31;101525.70;109426;1230;72781;-77
2022/08/08 08:24:59;;;;;;;6.90;5.30;;;;;;;21.77;69.05;101520.04;109536;1230;61000;-76
2022/08/08 08:27:37;;;;;;;9.70;5.70;;;;;;;21.73;69.11;101524.39;109573;1230;61236;-76
2022/08/08 08:30:14;;;;;;;7.40;5.50;;;;;;;21.50;69.68;101524.46;109442;1229;64470;-75
2022/08/08 08:32:42;;;;;;;8.00;5.10;;;;;;;21.48;70.09;101523.67;109675;1227;63419;-75
2022/08/08 08:35:19;;;;;;;6.50;5.30;;;;;;;21.65;69.51;101525.23;109472;1230;60134;-74
2022/08/08 08:37:57;;;;;;;7.60;5.20;;;;;;;21.63;69.97;101520.29;109511;1230;73163;-75
2022/08/08 08:40:46;;;;;;;5.80;4.40;;;;;;;21.79;69.47;101523.04;109569;1230;58883;-74
2022/08/08 08:43:20;;;;;;;10.10;5.00;;;;;;;21.82;69.14;101527.13;109370;1230;58933;-74
2022/08/08 08:45:55;;;;;;;7.90;5.80;;;;;;;21.87;68.81;101528.73;109594;1227;62053;-73
2022/08/08 08:48:25;;;;;;;8.70;5.10;;;;;;;21.87;68.89;101525.20;109597;1230;61640;-72
2022/08/08 08:50:54;;;;;;;5.90;4.70;;;;;;;22.03;68.37;101518.54;109368;1230;69740;-76
2022/08/08 08:53:24;;;;;;;7.50;4.80;;;;;;;22.07;68.41;101522.66;109130;1230;63537;-73
2022/08/08 08:56:17;;;;;;;7.60;4.90;;;;;;;22.24;67.83;101525.64;109345;1230;57626;-73
2022/08/08 08:58:52;;;;;;;6.50;5.00;;;;;;;22.32;67.25;101519.77;109512;1227;60486;-75
2022/08/08 09:01:33;;;;;;;7.60;5.00;;;;;;;22.36;66.45;101525.23;109588;1227;74159;-73
2022/08/08 09:04:21;;;;;;;7.70;5.20;;;;;;;22.22;66.95;101523.67;109559;1230;63207;-73
2022/08/08 09:07:11;;;;;;;6.90;4.80;;;;;;;22.32;67.22;101518.92;109155;1230;60427;-74
2022/08/08 09:09:47;;;;;;;7.80;5.10;;;;;;;22.51;66.75;101511.46;109222;1230;65152;-74
2022/08/08 09:12:30;;;;;;;6.40;5.00;;;;;;;22.62;66.10;101512.61;109545;1230;59080;-73
2022/08/08 09:14:59;;;;;;;7.10;5.10;;;;;;;22.43;66.40;101512.66;109515;1230;59093;-73
2022/08/08 09:17:35;;;;;;;6.60;4.80;;;;;;;22.82;65.50;101506.45;109316;1230;64404;-73
2022/08/08 09:20:20;;;;;;;8.20;5.30;;;;;;;23.17;64.31;101505.53;109403;1228;61576;-71
2022/08/08 09:23:09;;;;;;;6.30;4.90;;;;;;;23.17;64.25;101500.38;109253;1230;59093;-74
2022/08/08 09:26:04;;;;;;;6.80;5.20;;;;;;;23.29;63.30;101501.47;109172;1230;73849;-73
2022/08/08 09:28:38;;;;;;;8.10;5.60;;;;;;;23.22;64.04;101503.65;109298;1230;60996;-73
2022/08/08 09:31:53;;;;;;;6.60;5.10;;;;;;;23.33;63.31;101495.45;109488;1229;57455;-72
2022/08/08 09:34:32;;;;;;;8.40;5.10;;;;;;;23.76;63.01;101497.54;109273;1230;73667;-74
2022/08/08 09:37:09;;;;;;;7.00;4.30;;;;;;;23.92;62.52;101496.23;109412;1228;61988;-74
2022/08/08 09:40:08;;;;;;;6.10;4.30;;;;;;;24.20;61.76;101489.67;109726;1228;59919;-77
2022/08/08 09:42:44;;;;;;;6.70;5.10;;;;;;;24.30;60.44;101487.28;109730;1227;72643;-75
2022/08/08 09:45:30;;;;;;;5.50;4.80;;;;;;;24.22;60.60;101483.54;109635;1229;61046;-77
2022/08/08 09:48:17;;;;;;;6.00;4.70;;;;;;;24.19;60.50;101485.09;109529;1227;57920;-74
2022/08/08 09:50:57;;;;;;;9.90;5.10;;;;;;;24.20;60.62;101486.27;109696;1228;73588;-76
2022/08/08 09:53:48;;;;;;;8.50;4.60;;;;;;;24.33;60.36;101484.40;109581;1230;73188;-75
2022/08/08 09:56:38;;;;;;;7.30;4.50;;;;;;;24.40;59.82;101476.58;109352;1227;71939;-76
2022/08/08 09:59:20;;;;;;;6.00;5.10;;;;;;;24.32;59.89;101478.15;109458;1229;63135;-76
2022/08/08 10:02:23;;;;;;;7.10;5.30;;;;;;;24.56;59.88;101473.23;109581;1230;61247;-76
2022/08/08 10:04:51;;;;;;;5.80;4.90;;;;;;;24.77;58.58;101473.22;109466;1228;61732;-75
2022/08/08 10:07:19;;;;;;;6.20;5.30;;;;;;;24.86;58.34;101470.48;109722;1229;63347;-76
2022/08/08 10:09:51;;;;;;;8.30;5.60;;;;;;;24.95;58.11;101466.18;109410;1230;71293;-75
2022/08/08 10:12:38;;;;;;;8.30;5.20;;;;;;;24.93;58.14;101459.18;109439;1229;59922;-76
2022/08/08 10:15:36;;;;;;;5.70;4.70;;;;;;;24.86;58.20;101459.64;109469;1230;73060;-74
2022/08/08 10:18:06;;;;;;;7.70;5.20;;;;;;;24.87;58.43;101458.17;109459;1229;62237;-75
2022/08/08 10:20:45;;;;;;;5.90;5.00;;;;;;;24.90;58.54;101460.61;109552;1230;60991;-73
2022/08/08 10:23:48;;;;;;;6.80;5.50;;;;;;;25.07;57.84;101464.80;108467;1229;1588988;-74
2022/08/08 10:26:43;;;;;;;9.00;5.30;;;;;;;25.15;57.60;101462.90;109327;1229;72763;-73
2022/08/08 10:29:59;;;;;;;6.70;4.90;;;;;;;25.25;57.29;101462.27;109370;1229;68477;-74
2022/08/08 10:32:36;;;;;;;6.30;5.00;;;;;;;25.45;57.20;101457.13;109546;1230;73933;-73
2022/08/08 10:35:15;;;;;;;6.40;4.90;;;;;;;25.58;56.46;101451.83;109617;1229;60890;-77
2022/08/08 10:38:08;;;;;;;6.30;4.80;;;;;;;25.66;56.07;101446.63;109691;1230;61698;-74
2022/08/08 10:40:38;;;;;;;6.40;5.30;;;;;;;25.75;56.37;101439.80;109406;1228;62544;-74
2022/08/08 10:43:06;;;;;;;6.80;5.30;;;;;;;26.04;55.38;101436.59;109597;1228;71407;-73
2022/08/08 10:45:44;;;;;;;7.10;5.50;;;;;;;25.95;55.05;101425.61;109227;1230;71160;-72
2022/08/08 10:48:33;;;;;;;6.60;5.50;;;;;;;26.40;54.11;101424.64;109531;1230;76218;-73
2022/08/08 10:51:23;;;;;;;7.00;5.30;;;;;;;26.59;54.01;101422.10;109500;1228;60402;-75
2022/08/08 10:53:54;;;;;;;8.10;4.50;;;;;;;26.62;53.42;101425.41;109334;1230;61262;-75
2022/08/08 10:56:32;;;;;;;5.50;4.70;;;;;;;26.86;52.58;101427.36;109338;1228;64540;-76
2022/08/08 10:59:09;;;;;;;6.30;5.10;;;;;;;27.04;52.43;101416.43;109300;1229;73283;-76
2022/08/08 11:01:46;;;;;;;6.00;5.00;;;;;;;27.28;51.73;101415.52;109409;1230;59648;-75
2022/08/08 11:04:22;;;;;;;5.80;4.80;;;;;;;27.46;51.77;101412.93;109609;1229;73882;-75
2022/08/08 11:07:06;;;;;;;6.60;5.00;;;;;;;27.56;51.17;101410.66;109402;1230;60661;-75
2022/08/08 11:09:34;;;;;;;7.40;4.90;;;;;;;27.38;50.66;101407.35;109379;1230;61468;-75
2022/08/08 11:12:02;;;;;;;8.00;4.70;;;;;;;27.70;50.72;101403.17;109343;1230;73516;-74
2022/08/08 11:14:56;;;;;;;7.10;5.40;;;;;;;27.86;50.16;101378.59;109275;1230;72962;-75
2022/08/08 11:17:28;;;;;;;6.70;5.30;;;;;;;28.08;49.77;101390.91;109327;1229;70982;-74
2022/08/08 11:20:18;;;;;;;5.80;4.70;;;;;;;28.24;48.85;101385.59;109516;1228;73979;-74
2022/08/08 11:22:57;;;;;;;5.90;4.70;;;;;;;28.23;48.71;101384.43;109396;1230;61530;-74
2022/08/08 11:25:32;;;;;;;6.00;4.90;;;;;;;28.17;48.86;101377.89;109435;1229;59887;-74
2022/08/08 11:28:25;;;;;;;7.80;4.80;;;;;;;28.22;48.72;101373.61;109503;1229;62717;-77
2022/08/08 11:31:00;;;;;;;7.50;5.00;;;;;;;28.45;48.22;101376.73;109411;1229;61560;-74
2022/08/08 11:33:35;;;;;;;7.50;4.80;;;;;;;28.78;47.57;101376.73;109409;1228;60023;-76
2022/08/08 11:36:24;;;;;;;5.90;4.90;;;;;;;29.20;46.74;101374.86;109305;1227;74320;-76
2022/08/08 11:38:56;;;;;;;5.70;4.70;;;;;;;28.86;46.30;101376.04;109140;1229;61869;-74
2022/08/08 11:41:26;;;;;;;7.50;5.00;;;;;;;29.04;46.29;101373.14;109048;1230;61404;-75
2022/08/08 11:43:59;;;;;;;6.10;4.80;;;;;;;29.41;46.05;101368.25;109339;1230;73934;-74
2022/08/08 11:46:29;;;;;;;6.20;4.80;;;;;;;29.51;45.89;101365.45;109132;1230;62040;-73
2022/08/08 11:49:03;;;;;;;6.60;4.80;;;;;;;29.83;44.75;101366.57;109223;1230;59862;-74
2022/08/08 11:51:33;;;;;;;6.30;4.80;;;;;;;30.14;43.96;101365.41;109312;1227;73928;-74
2022/08/08 11:54:16;;;;;;;6.50;4.60;;;;;;;29.90;44.61;101360.83;109438;1228;59709;-71
2022/08/08 11:57:22;;;;;;;5.30;4.50;;;;;;;29.22;45.62;101360.23;109294;1230;60906;-74
2022/08/08 11:59:55;;;;;;;5.10;4.20;;;;;;;29.45;45.45;101349.96;109496;1229;72546;-72
2022/08/08 12:02:56;;;;;;;5.70;4.50;;;;;;;30.18;44.30;101343.58;109519;1230;62470;-71
2022/08/08 12:05:39;;;;;;;5.00;4.50;;;;;;;29.99;43.52;101344.23;109258;1230;71007;-71
2022/08/08 12:08:06;;;;;;;7.10;4.40;;;;;;;29.90;44.25;101344.09;109487;1229;63797;-72
2022/08/08 12:10:48;;;;;;;5.60;4.20;;;;;;;30.76;42.70;101345.48;109396;1230;61215;-72
2022/08/08 12:13:22;;;;;;;6.40;4.50;;;;;;;30.93;42.36;101341.66;109504;1230;58993;-75
2022/08/08 12:16:15;;;;;;;5.20;4.30;;;;;;;31.43;41.76;101337.58;109467;1229;71916;-74
2022/08/08 12:18:51;;;;;;;5.90;4.20;;;;;;;32.03;40.47;101335.66;109601;1230;72157;-73
2022/08/08 12:21:30;;;;;;;7.00;4.40;;;;;;;31.93;40.30;101335.93;109478;1227;71021;-72
2022/08/08 12:24:22;;;;;;;9.60;4.40;;;;;;;32.07;40.41;101337.36;109603;1229;73599;-73
2022/08/08 12:26:56;;;;;;;6.50;4.60;;;;;;;32.08;40.39;101330.55;109529;1229;57499;-75
2022/08/08 12:29:36;;;;;;;8.60;4.80;;;;;;;32.37;39.94;101336.73;109564;1230;61111;-75
2022/08/08 12:32:13;;;;;;;9.30;4.40;;;;;;;32.27;39.07;101332.23;109630;1230;74136;-73
2022/08/08 12:35:01;;;;;;;5.60;4.60;;;;;;;32.84;38.55;101326.61;109689;1227;63051;-72
2022/08/08 12:37:46;;;;;;;6.20;4.10;;;;;;;32.99;37.95;101320.11;109457;1230;70200;-73
2022/08/08 12:40:55;;;;;;;5.00;4.50;;;;;;;32.55;38.67;101317.20;109598;1227;63632;-72
2022/08/08 12:43:34;;;;;;;5.20;4.40;;;;;;;32.95;38.01;101318.41;109617;1228;57533;-73
2022/08/08 12:46:21;;;;;;;5.40;4.60;;;;;;;32.84;38.24;101320.06;109606;1228;60312;-74
2022/08/08 12:48:58;;;;;;;;;;;;;;;32.39;38.54;101308.77;109580;1228;63393;-74
2022/08/08 12:51:49;;;;;;;7.80;5.00;;;;;;;32.37;39.00;101309.23;109471;1230;70620;-73
2022/08/08 12:54:35;;;;;;;5.20;4.30;;;;;;;32.26;38.99;101313.00;109559;1230;69426;-73
2022/08/08 12:57:20;;;;;;;6.10;4.10;;;;;;;32.76;37.95;101309.74;109569;1230;63811;-75
2022/08/08 12:59:50;;;;;;;6.40;4.30;;;;;;;33.36;37.32;101309.57;109522;1230;60391;-74
2022/08/08 13:02:41;;;;;;;7.00;4.20;;;;;;;33.24;37.31;101305.00;109647;1227;58712;-72
2022/08/08 13:05:23;;;;;;;4.80;4.10;;;;;;;33.31;37.56;101309.33;109609;1228;73136;-73
2022/08/08 13:08:20;;;;;;;5.50;4.40;;;;;;;33.35;37.13;101307.84;109628;1229;62026;-73
2022/08/08 13:10:54;;;;;;;7.90;4.20;;;;;;;33.04;37.39;101314.34;109618;1228;70990;-71
2022/08/08 13:13:32;;;;;;;33.60;14.60;;;;;;;32.34;38.78;101311.34;109568;1230;63555;-74
2022/08/08 13:16:21;;;;;;;13.40;7.80;;;;;;;32.41;38.68;101301.34;109498;1228;57684;-71
2022/08/08 13:18:56;;;;;;;6.80;4.80;;;;;;;32.68;38.58;101304.84;109538;1230;60634;-73
2022/08/08 13:21:44;;;;;;;6.30;4.30;;;;;;;32.83;38.04;101300.67;109382;1230;73587;-74
2022/08/08 13:24:30;;;;;;;7.20;4.30;;;;;;;33.25;37.29;101298.30;109571;1228;61226;-74
2022/08/08 13:27:17;;;;;;;5.60;4.00;;;;;;;33.29;37.34;101288.69;109453;1230;59882;-75
2022/08/08 13:29:48;;;;;;;7.30;4.70;;;;;;;33.45;36.77;101289.56;109597;1229;64508;-73
2022/08/08 13:32:18;;;;;;;8.60;4.50;;;;;;;32.63;38.13;101282.74;109385;1230;57966;-70
2022/08/08 13:34:57;;;;;;;6.90;5.30;;;;;;;33.09;37.33;101280.39;109517;1230;61402;-77
2022/08/08 13:37:27;;;;;;;4.80;4.30;;;;;;;33.19;37.23;101278.88;109667;1230;72473;-72
2022/08/08 13:40:18;;;;;;;8.00;5.70;;;;;;;33.50;37.04;101279.17;109573;1230;72152;-71
2022/08/08 13:42:55;;;;;;;7.90;4.40;;;;;;;33.77;36.11;101276.69;109574;1227;60704;-73
2022/08/08 13:45:25;;;;;;;5.30;4.10;;;;;;;34.02;36.11;101277.91;109569;1230;63216;-73
2022/08/08 13:48:00;;;;;;;8.10;4.70;;;;;;;34.27;35.50;101271.42;109263;1230;61217;-71
2022/08/08 13:50:34;;;;;;;4.60;4.00;;;;;;;34.33;35.11;101275.46;109588;1230;59052;-73
2022/08/08 13:53:30;;;;;;;5.00;3.60;;;;;;;34.19;35.48;101266.64;109757;1230;63444;-73
2022/08/08 13:56:07;;;;;;;5.60;4.10;;;;;;;34.77;34.50;101264.84;109575;1230;62110;-72
2022/08/08 13:58:51;;;;;;;6.10;4.30;;;;;;;34.75;34.31;101267.80;109373;1230;69656;-72
2022/08/08 14:01:30;;;;;;;4.60;4.00;;;;;;;34.48;34.66;101273.63;109767;1229;73714;-72
2022/08/08 14:04:24;;;;;;;5.30;4.10;;;;;;;34.74;34.20;101267.74;109349;1229;59443;-72
2022/08/08 14:07:01;;;;;;;5.20;3.90;;;;;;;34.83;34.24;101264.84;109547;1228;57313;-74
2022/08/08 14:09:36;;;;;;;6.30;3.90;;;;;;;34.58;34.31;101269.30;109433;1228;62264;-72
2022/08/08 14:12:29;;;;;;;6.00;4.00;;;;;;;34.25;35.01;101271.52;109572;1230;61816;-73
2022/08/08 14:14:57;;;;;;;5.30;4.30;;;;;;;34.73;34.12;101270.17;109554;1228;69791;-74
2022/08/08 14:17:26;;;;;;;4.50;3.90;;;;;;;34.46;34.18;101263.73;109595;1230;74225;-73
2022/08/08 14:20:13;;;;;;;4.80;4.10;;;;;;;34.47;34.36;101261.84;109328;1230;58976;-71
2022/08/08 14:23:19;;;;;;;5.70;4.10;;;;;;;34.37;34.57;101257.02;109352;1230;60428;-72
2022/08/08 14:26:06;;;;;;;4.90;3.80;;;;;;;34.56;34.73;101255.48;109620;1228;73733;-73
2022/08/08 14:28:48;;;;;;;;;;;;;;;34.64;34.66;101257.18;109506;1231;61560;-71
2022/08/08 14:31:16;;;;;;;5.10;4.40;;;;;;;34.61;34.33;101250.48;109633;1227;71332;-72
2022/08/08 14:34:10;;;;;;;4.40;4.00;;;;;;;35.21;33.52;101248.76;109573;1229;63905;-72
2022/08/08 14:36:50;;;;;;;5.50;4.00;;;;;;;35.29;33.01;101246.30;109634;1228;61111;-72
2022/08/08 14:39:21;;;;;;;5.70;3.80;;;;;;;34.83;34.00;101242.59;109593;1228;61583;-71
2022/08/08 14:42:02;;;;;;;4.30;3.70;;;;;;;34.60;34.60;101244.38;109521;1230;74715;-73
2022/08/08 14:44:29;;;;;;;6.60;3.80;;;;;;;34.68;34.61;101242.13;109514;1230;61693;-71
2022/08/08 14:47:02;;;;;;;5.80;4.20;;;;;;;34.75;34.48;101241.23;109526;1228;60055;-70
2022/08/08 14:49:48;;;;;;;8.90;4.30;;;;;;;34.91;34.04;101243.90;109252;1228;74197;-72
2022/08/08 14:52:46;;;;;;;4.80;4.20;;;;;;;35.46;33.04;101239.11;109424;1227;62026;-74
2022/08/08 14:55:15;;;;;;;6.40;4.10;;;;;;;34.71;34.09;101242.35;110364;1228;58902;-71
2022/08/08 14:57:56;;;;;;;;;;;;;;;34.67;34.07;101246.41;109524;1230;74041;-73
2022/08/08 15:00:33;;;;;;;7.40;5.30;;;;;;;35.00;33.58;101246.46;109522;1228;61225;-71
2022/08/08 15:03:01;;;;;;;5.20;4.20;;;;;;;35.40;33.12;101248.41;109449;1228;69910;-73
2022/08/08 15:05:45;;;;;;;6.50;4.10;;;;;;;35.25;33.15;101247.40;109509;1229;63617;-71
2022/08/08 15:08:24;;;;;;;4.70;4.20;;;;;;;34.95;33.32;101242.09;109532;1228;58801;-72
2022/08/08 15:11:09;;;;;;;5.00;3.90;;;;;;;35.03;33.61;101235.47;109590;1230;59088;-72
2022/08/08 15:13:41;;;;;;;3.80;3.40;;;;;;;35.05;33.05;101232.96;109333;1230;63855;-71
2022/08/08 15:16:28;;;;;;;6.40;4.30;;;;;;;34.46;34.07;101238.95;109491;1228;61476;-72
2022/08/08 15:19:03;;;;;;;4.90;4.00;;;;;;;34.44;34.33;101240.27;109596;1229;60004;-73
2022/08/08 15:21:31;;;;;;;3.90;3.50;;;;;;;34.12;34.77;101239.63;109580;1229;73506;-71
2022/08/08 15:23:58;;;;;;;5.80;4.10;;;;;;;34.62;33.91;101231.67;109734;1229;61566;-71
2022/08/08 15:26:26;;;;;;;5.90;4.00;;;;;;;34.30;34.58;101232.06;109645;1228;61764;-70
2022/08/08 15:28:56;;;;;;;4.80;3.50;;;;;;;34.55;34.18;101233.67;109572;1228;74037;-72
2022/08/08 15:31:23;;;;;;;7.40;4.10;;;;;;;34.68;33.71;101230.85;109516;1227;70679;-74
2022/08/08 15:34:11;;;;;;;4.50;4.00;;;;;;;34.55;34.08;101230.30;109420;1228;71443;-72
2022/08/08 15:36:58;;;;;;;7.10;3.80;;;;;;;34.29;34.13;101232.98;109511;1228;74312;-71
2022/08/08 15:39:27;;;;;;;5.40;3.90;;;;;;;34.12;34.66;101231.05;109557;1227;57250;-73
2022/08/08 15:41:59;;;;;;;6.90;4.00;;;;;;;34.03;34.64;101226.34;109655;1229;60772;-71
2022/08/08 15:44:28;;;;;;;5.50;3.80;;;;;;;33.79;35.45;101226.59;109598;1228;73468;-71
2022/08/08 15:46:56;;;;;;;5.10;4.00;;;;;;;33.91;35.16;101231.29;109447;1228;61095;-71
2022/08/08 15:49:24;;;;;;;4.90;3.90;;;;;;;33.67;35.38;101234.80;109593;1228;70358;-72
2022/08/08 15:52:02;;;;;;;6.30;3.60;;;;;;;33.80;35.18;101230.71;109666;1228;73987;-72
2022/08/08 15:54:30;;;;;;;5.00;3.70;;;;;;;33.74;35.18;101232.60;109505;1228;58819;-72
2022/08/08 15:57:09;;;;;;;5.00;3.70;;;;;;;33.82;35.14;101233.72;109329;1228;57531;-73
2022/08/08 15:59:39;;;;;;;4.50;4.10;;;;;;;33.65;35.27;101236.06;109488;1229;73654;-72
2022/08/08 16:02:27;;;;;;;4.40;4.00;;;;;;;33.38;35.90;101232.75;109346;1228;71797;-72
2022/08/08 16:05:00;;;;;;;7.60;4.10;;;;;;;32.94;36.60;101232.67;109531;1228;71268;-71
2022/08/08 16:07:30;;;;;;;5.30;4.10;;;;;;;32.62;37.32;101233.02;109512;1228;63630;-71
2022/08/08 16:10:17;;;;;;;5.00;4.00;;;;;;;32.54;37.49;101233.75;109509;1228;59386;-72
2022/08/08 16:13:05;;;;;;;5.00;4.20;;;;;;;32.12;38.17;101231.50;109563;1228;60323;-73
2022/08/08 16:15:52;;;;;;;6.20;4.00;;;;;;;31.46;39.90;101237.14;109533;1228;64040;-77
2022/08/08 16:18:35;;;;;;;5.80;3.70;;;;;;;31.32;40.14;101236.66;109416;1228;72222;-74
2022/08/08 16:21:03;;;;;;;5.80;3.90;;;;;;;31.26;40.39;101243.91;109504;1228;60463;-74
2022/08/08 16:23:51;;;;;;;6.80;4.00;;;;;;;31.16;40.44;101244.81;109765;1227;73123;-73
2022/08/08 16:26:24;;;;;;;;;;;;;;;30.80;41.12;101247.62;109604;1228;61688;-76
2022/08/08 16:29:08;;;;;;;5.80;4.00;;;;;;;30.04;43.03;101252.77;109484;1228;62391;-74
2022/08/08 16:31:44;;;;;;;7.10;4.20;;;;;;;29.93;43.10;101254.11;109543;1228;73345;-77
2022/08/08 16:34:20;;;;;;;7.80;4.40;;;;;;;29.58;43.60;101254.48;109413;1228;61458;-73
2022/08/08 16:36:51;;;;;;;8.90;4.20;;;;;;;29.27;44.46;101262.07;109532;1228;59355;-74
2022/08/08 16:39:20;;;;;;;8.40;4.60;;;;;;;28.92;45.28;101259.52;109377;1228;62500;-71
2022/08/08 16:42:09;;;;;;;5.00;3.80;;;;;;;28.55;46.49;101261.27;109362;1228;58994;-72
2022/08/08 16:44:47;;;;;;;6.20;4.50;;;;;;;28.34;46.75;101264.89;109388;1228;59085;-73
2022/08/08 16:47:27;;;;;;;5.60;4.20;;;;;;;28.05;47.63;101267.52;109560;1228;73566;-78
2022/08/08 16:50:14;;;;;;;5.60;4.00;;;;;;;27.72;48.81;101266.27;109400;1228;69147;-74
2022/08/08 16:52:50;;;;;;;8.00;3.80;;;;;;;27.39;50.13;101269.52;109504;1228;69250;-73
2022/08/08 16:55:39;;;;;;;6.90;4.30;;;;;;;27.33;50.26;101271.51;109415;1228;73615;-73
2022/08/08 16:58:26;;;;;;;5.30;3.80;;;;;;;27.24;50.67;101277.66;109483;1228;59045;-77
2022/08/08 17:01:09;;;;;;;6.60;4.60;;;;;;;27.20;50.55;101276.09;109394;1228;61293;-73
2022/08/08 17:03:38;;;;;;;5.40;4.00;;;;;;;27.14;50.97;101282.60;109662;1228;74334;-73
2022/08/08 17:06:26;;;;;;;7.80;4.40;;;;;;;27.03;51.60;101286.24;109540;1228;72729;-74
2022/08/08 17:09:05;;;;;;;6.90;4.80;;;;;;;26.89;52.29;101289.45;109463;1228;71112;-71
2022/08/08 17:11:32;;;;;;;6.40;4.40;;;;;;;26.70;52.90;101292.21;109401;1229;62828;-73
2022/08/08 17:14:16;;;;;;;6.60;4.20;;;;;;;26.59;53.29;101295.12;109435;1228;60587;-74
2022/08/08 17:16:48;;;;;;;5.00;4.10;;;;;;;26.47;53.64;101296.11;109566;1229;58896;-74
2022/08/08 17:19:26;;;;;;;6.50;4.50;;;;;;;26.36;53.78;101302.69;109116;1230;62937;-74
2022/08/08 17:21:57;;;;;;;6.80;4.70;;;;;;;26.23;54.31;101308.02;109497;1228;72171;-74
2022/08/08 17:24:29;;;;;;;;;;;;;;;26.17;54.49;101311.25;109452;1230;60510;-75
2022/08/08 17:27:00;;;;;;;9.20;5.00;;;;;;;26.06;54.91;101312.68;109522;1228;62470;-79
2022/08/08 17:29:30;;;;;;;6.00;4.50;;;;;;;25.97;54.62;101315.07;109563;1231;60576;-72
2022/08/08 17:32:04;;;;;;;7.40;4.80;;;;;;;25.88;55.53;101313.77;109621;1228;61621;-74
2022/08/08 17:34:36;;;;;;;7.80;4.80;;;;;;;25.80;56.14;101313.92;109697;1229;73946;-76
2022/08/08 17:37:24;;;;;;;7.40;4.90;;;;;;;25.67;56.69;101317.86;109745;1228;69445;-73
2022/08/08 17:39:54;;;;;;;7.70;4.90;;;;;;;25.60;56.98;101320.02;109664;1228;59612;-73
2022/08/08 17:42:45;;;;;;;10.50;6.60;;;;;;;25.51;57.62;101326.34;109762;1228;63289;-75
2022/08/08 17:45:18;;;;;;;7.30;5.00;;;;;;;25.44;57.71;101332.08;109751;1228;60439;-74
2022/08/08 17:47:52;;;;;;;7.10;5.40;;;;;;;25.40;57.29;101334.89;109158;1231;59023;-74
2022/08/08 17:50:22;;;;;;;8.10;5.20;;;;;;;25.30;58.07;101340.43;109533;1228;73548;-73
2022/08/08 17:52:52;;;;;;;7.20;4.70;;;;;;;25.25;57.93;101344.21;109269;1231;71945;-74
2022/08/08 17:55:20;;;;;;;5.80;4.30;;;;;;;25.15;58.47;101341.50;109300;1229;70067;-73
2022/08/08 17:58:07;;;;;;;6.20;4.70;;;;;;;25.06;58.71;101345.85;109225;1231;62992;-76
2022/08/08 18:00:35;;;;;;;6.60;4.60;;;;;;;25.04;58.67;101354.48;109254;1228;60528;-76
2022/08/08 18:03:08;;;;;;;5.80;4.50;;;;;;;24.96;59.21;101362.20;109393;1228;60858;-74
2022/08/08 18:05:40;;;;;;;;;;;;;;;24.93;59.18;101368.90;109368;1228;64025;-74
2022/08/08 18:08:19;;;;;;;6.70;4.60;;;;;;;24.86;59.32;101366.54;109327;1228;61493;-73
2022/08/08 18:11:15;;;;;;;7.60;4.80;;;;;;;24.81;59.37;101368.90;109302;1228;59269;-76
2022/08/08 18:13:45;;;;;;;7.00;4.60;;;;;;;24.75;59.60;101369.69;109268;1231;62545;-76
2022/08/08 18:16:15;;;;;;;5.70;4.60;;;;;;;24.69;60.14;101374.11;109529;1229;60138;-79
2022/08/08 18:18:54;;;;;;;6.00;5.00;;;;;;;24.63;60.32;101382.30;109737;1228;61625;-75
2022/08/08 18:21:28;;;;;;;7.40;5.20;;;;;;;24.59;60.11;101383.85;109490;1228;62622;-74
2022/08/08 18:24:18;;;;;;;;;;;;;;;24.53;60.27;101385.29;109616;1228;61925;-76
2022/08/08 18:26:51;;;;;;;9.00;5.60;;;;;;;24.46;60.74;101384.46;109663;1228;59989;-71
2022/08/08 18:29:27;;;;;;;6.60;5.20;;;;;;;24.39;61.69;101388.80;109401;1228;65630;-73
2022/08/08 18:32:07;;;;;;;11.30;5.10;;;;;;;24.35;61.61;101390.89;109476;1228;62171;-73
2022/08/08 18:34:40;;;;;;;7.30;5.20;;;;;;;24.30;61.52;101389.85;109433;1228;59016;-74
2022/08/08 18:37:10;;;;;;;7.80;5.50;;;;;;;24.25;61.82;101396.20;109566;1228;62958;-74
2022/08/08 18:39:58;;;;;;;11.00;5.60;;;;;;;24.19;61.69;101400.05;109311;1231;60671;-75
2022/08/08 18:42:27;;;;;;;8.80;5.60;;;;;;;24.16;61.85;101401.35;109486;1228;61745;-75
2022/08/08 18:44:54;;;;;;;7.10;5.40;;;;;;;24.10;61.90;101402.58;109475;1228;63584;-75
2022/08/08 18:47:25;;;;;;;8.10;5.10;;;;;;;24.05;62.15;101401.36;109426;1228;59204;-76